Time;durP1;ratioP1;P1;durP2;ratioP2;P2;SDS_P1;SDS_P2;PMS_P1;PMS_P2;Temp;Humidity;BMP_temperature;BMP_pressure;BME280_temperature;BME280_humidity;BME280_pressure;Samples;Min_cycle;Max_cycle;Signal;HPM_P1;HPM_P2
2021/10/14 00:00:57;;;;;;;19.25;11.20;;;10.50;82.80;;;;;;4985604;28;20038;-72
2021/10/14 00:03:23;;;;;;;18.08;11.20;;;10.50;83.00;;;;;;4981729;28;20142;-73
2021/10/14 00:05:49;;;;;;;19.20;12.15;;;10.50;83.00;;;;;;4981083;28;20034;-72
2021/10/14 00:08:15;;;;;;;17.40;11.27;;;10.50;83.10;;;;;;4980198;28;20406;-73
2021/10/14 00:10:41;;;;;;;16.40;11.68;;;10.50;82.90;;;;;;4981853;28;20113;-73
2021/10/14 00:13:06;;;;;;;17.77;11.07;;;10.60;82.90;;;;;;4986311;28;20113;-76
2021/10/14 00:15:32;;;;;;;17.60;10.88;;;10.60;82.70;;;;;;4981143;28;20026;-75
2021/10/14 00:18:01;;;;;;;15.93;11.48;;;10.50;82.70;;;;;;4985981;28;20058;-76
2021/10/14 00:20:28;;;;;;;18.45;11.38;;;10.50;82.70;;;;;;4988963;28;20046;-73
2021/10/14 00:22:54;;;;;;;18.23;10.82;;;10.50;82.70;;;;;;4986480;28;20031;-73
2021/10/14 00:25:22;;;;;;;21.83;10.95;;;10.60;82.60;;;;;;4985599;28;20033;-72
2021/10/14 00:27:51;;;;;;;17.35;11.20;;;10.60;82.50;;;;;;4988616;28;20673;-74
2021/10/14 00:30:18;;;;;;;17.00;11.35;;;10.60;82.60;;;;;;4984302;28;20027;-74
2021/10/14 00:32:44;;;;;;;17.15;10.57;;;10.60;82.50;;;;;;5001573;28;20034;-73
2021/10/14 00:35:09;;;;;;;19.98;11.30;;;10.60;82.50;;;;;;4980413;28;20493;-74
2021/10/14 00:37:35;;;;;;;19.70;11.15;;;10.60;82.50;;;;;;4985913;28;20031;-72
2021/10/14 00:40:01;;;;;;;15.85;10.43;;;10.60;82.70;;;;;;4982223;28;20026;-72
2021/10/14 00:42:27;;;;;;;18.30;10.82;;;10.50;82.60;;;;;;4982517;28;20584;-73
2021/10/14 00:44:55;;;;;;;15.35;10.77;;;10.50;82.60;;;;;;4985725;28;20122;-73
2021/10/14 00:47:26;;;;;;;17.05;11.05;;;10.60;82.60;;;;;;4985165;28;20093;-72
2021/10/14 00:49:52;;;;;;;18.45;11.02;;;10.60;82.50;;;;;;4985735;28;20078;-72
2021/10/14 00:52:19;;;;;;;17.10;10.48;;;10.60;82.50;;;;;;4987629;28;20450;-73
2021/10/14 00:54:46;;;;;;;17.88;9.82;;;10.50;82.60;;;;;;4984770;28;20054;-72
2021/10/14 00:57:13;;;;;;;17.75;11.20;;;10.60;82.50;;;;;;4980920;28;20041;-74
2021/10/14 00:59:40;;;;;;;17.25;10.82;;;10.50;82.50;;;;;;4982267;28;20030;-73
2021/10/14 01:02:06;;;;;;;16.65;10.68;;;10.50;82.50;;;;;;4985975;28;20033;-73
2021/10/14 01:04:32;;;;;;;18.60;11.00;;;10.40;82.70;;;;;;4986430;28;20034;-76
2021/10/14 01:06:58;;;;;;;15.98;11.20;;;10.40;82.60;;;;;;4985962;28;20065;-73
2021/10/14 01:09:24;;;;;;;17.10;10.40;;;10.40;82.70;;;;;;4985167;28;20098;-74
2021/10/14 01:11:50;;;;;;;19.70;11.25;;;10.30;82.70;;;;;;4978974;28;20038;-75
2021/10/14 01:14:16;;;;;;;18.52;10.57;;;10.40;82.80;;;;;;4988173;28;20037;-73
2021/10/14 01:16:43;;;;;;;18.08;11.02;;;10.30;82.90;;;;;;4986677;28;20456;-73
2021/10/14 01:19:10;;;;;;;17.42;11.32;;;10.30;83.10;;;;;;4981592;28;20321;-72
2021/10/14 01:21:37;;;;;;;17.08;10.82;;;10.30;83.00;;;;;;4982833;28;20421;-73
2021/10/14 01:24:03;;;;;;;20.90;11.43;;;10.30;83.10;;;;;;4981410;28;20030;-72
2021/10/14 01:26:29;;;;;;;17.88;10.75;;;10.30;83.30;;;;;;4983654;28;20034;-72
2021/10/14 01:28:55;;;;;;;16.70;10.98;;;10.30;83.20;;;;;;4979659;28;20108;-71
2021/10/14 01:31:27;;;;;;;17.60;10.68;;;10.30;83.20;;;;;;4989015;28;20050;-72
2021/10/14 01:33:54;;;;;;;19.27;11.23;;;10.30;83.10;;;;;;4981761;28;20045;-72
2021/10/14 01:36:20;;;;;;;18.30;11.35;;;10.30;83.20;;;;;;5001099;28;20042;-72
2021/10/14 01:38:46;;;;;;;19.70;11.30;;;10.30;83.30;;;;;;5006445;28;20417;-73
2021/10/14 01:41:12;;;;;;;18.02;11.35;;;10.30;83.30;;;;;;5007526;28;20430;-72
2021/10/14 01:43:38;;;;;;;17.55;11.02;;;10.30;83.30;;;;;;5004446;28;20492;-72
2021/10/14 01:46:04;;;;;;;17.27;11.70;;;10.20;83.30;;;;;;5006237;28;20050;-71
2021/10/14 01:48:30;;;;;;;17.88;11.27;;;10.30;83.30;;;;;;5000619;28;20044;-75
2021/10/14 01:50:57;;;;;;;18.25;11.82;;;10.30;83.30;;;;;;4999465;28;20128;-73
2021/10/14 01:53:23;;;;;;;17.73;11.23;;;10.30;83.40;;;;;;5002788;28;20570;-72
2021/10/14 01:55:48;;;;;;;20.30;11.50;;;10.30;83.40;;;;;;5001014;28;20029;-71
2021/10/14 01:58:14;;;;;;;19.38;11.95;;;10.30;83.40;;;;;;5004902;28;20460;-73
2021/10/14 02:00:40;;;;;;;17.10;12.07;;;10.30;83.60;;;;;;5006477;28;20057;-72
2021/10/14 02:03:06;;;;;;;18.40;11.93;;;10.20;83.60;;;;;;5006878;28;20096;-73
2021/10/14 02:05:32;;;;;;;16.83;11.45;;;10.30;83.70;;;;;;5003646;28;20541;-72
2021/10/14 02:07:58;;;;;;;19.98;11.90;;;10.30;83.60;;;;;;5003435;28;20044;-73
2021/10/14 02:10:24;;;;;;;18.20;12.25;;;10.30;83.70;;;;;;4999436;28;20054;-75
2021/10/14 02:12:54;;;;;;;15.80;11.55;;;10.20;83.80;;;;;;4999321;28;20054;-72
2021/10/14 02:15:20;;;;;;;18.48;12.15;;;10.30;83.80;;;;;;5001508;28;20113;-74
2021/10/14 02:17:46;;;;;;;16.25;11.98;;;10.30;84.00;;;;;;5005283;28;20109;-74
2021/10/14 02:20:12;;;;;;;21.80;12.18;;;10.20;84.00;;;;;;5001993;28;20076;-73
2021/10/14 02:22:38;;;;;;;24.65;11.70;;;10.20;84.00;;;;;;5004967;28;20033;-72
2021/10/14 02:25:05;;;;;;;20.60;12.18;;;10.20;84.20;;;;;;5004666;28;20424;-71
2021/10/14 02:27:31;;;;;;;20.48;12.15;;;10.20;84.30;;;;;;5012824;28;20045;-72
2021/10/14 02:29:57;;;;;;;18.45;12.02;;;10.20;84.40;;;;;;4990018;28;20027;-72
2021/10/14 02:32:23;;;;;;;16.60;11.57;;;10.20;84.50;;;;;;4980102;28;20065;-72
2021/10/14 02:34:48;;;;;;;17.95;12.23;;;10.20;84.60;;;;;;4983691;28;20030;-72
2021/10/14 02:37:14;;;;;;;19.40;12.73;;;10.30;84.60;;;;;;4982520;28;20042;-73
2021/10/14 02:39:40;;;;;;;19.98;12.00;;;10.30;84.50;;;;;;4979537;28;20034;-72
2021/10/14 02:42:05;;;;;;;20.95;11.50;;;10.30;84.70;;;;;;4986118;28;20081;-74
2021/10/14 02:44:31;;;;;;;21.92;12.45;;;10.30;84.70;;;;;;4983618;28;20047;-72
2021/10/14 02:46:57;;;;;;;19.95;12.05;;;10.40;84.60;;;;;;4986564;28;20035;-74
2021/10/14 02:49:22;;;;;;;19.73;11.63;;;10.30;84.70;;;;;;4984163;28;20049;-72
2021/10/14 02:51:48;;;;;;;17.60;10.98;;;10.40;84.70;;;;;;4987776;28;20080;-72
2021/10/14 02:54:14;;;;;;;18.67;11.57;;;10.40;84.70;;;;;;4977754;28;20273;-76
2021/10/14 02:56:39;;;;;;;21.25;13.00;;;10.30;84.80;;;;;;4981246;28;20058;-72
2021/10/14 02:59:05;;;;;;;20.90;13.10;;;10.40;84.80;;;;;;4980655;28;20429;-72
2021/10/14 03:01:31;;;;;;;18.50;11.75;;;10.30;85.00;;;;;;4985656;28;20046;-73
2021/10/14 03:03:56;;;;;;;19.92;12.85;;;10.40;85.10;;;;;;4980622;28;20513;-73
2021/10/14 03:06:22;;;;;;;18.10;10.88;;;10.40;85.00;;;;;;4982877;28;20030;-73
2021/10/14 03:08:48;;;;;;;21.08;12.85;;;10.40;85.10;;;;;;4981833;28;20042;-72
2021/10/14 03:11:13;;;;;;;17.17;12.30;;;10.30;85.20;;;;;;4986376;28;20030;-72
2021/10/14 03:13:39;;;;;;;16.35;11.27;;;10.40;85.30;;;;;;4983318;28;20458;-73
2021/10/14 03:16:05;;;;;;;18.55;12.20;;;10.40;85.40;;;;;;4987208;28;20635;-73
2021/10/14 03:18:31;;;;;;;18.10;11.57;;;10.30;85.60;;;;;;4984049;28;20038;-73
2021/10/14 03:20:58;;;;;;;18.58;11.93;;;10.40;85.60;;;;;;4981183;28;20039;-72
2021/10/14 03:23:24;;;;;;;20.45;11.32;;;10.40;85.50;;;;;;4978058;28;20038;-72
2021/10/14 03:25:49;;;;;;;18.50;10.88;;;10.50;85.50;;;;;;4983297;28;20448;-72
2021/10/14 03:28:15;;;;;;;16.95;10.95;;;10.50;85.50;;;;;;4978834;28;20496;-75
2021/10/14 03:30:41;;;;;;;18.55;11.10;;;10.50;85.60;;;;;;4982534;28;20454;-73
2021/10/14 03:33:07;;;;;;;21.23;12.02;;;10.50;85.50;;;;;;4987599;28;20125;-73
2021/10/14 03:35:32;;;;;;;17.67;11.43;;;10.60;85.60;;;;;;4983067;28;20034;-72
2021/10/14 03:37:58;;;;;;;19.23;12.75;;;10.60;85.50;;;;;;4980470;28;20041;-72
2021/10/14 03:40:24;;;;;;;16.50;11.60;;;10.60;85.60;;;;;;4985859;28;20492;-72
2021/10/14 03:42:50;;;;;;;20.38;12.00;;;10.60;85.70;;;;;;4981773;28;20026;-72
2021/10/14 03:45:16;;;;;;;19.42;11.95;;;10.60;85.80;;;;;;4981931;28;20038;-76
2021/10/14 03:47:42;;;;;;;16.90;11.65;;;10.60;85.70;;;;;;4989245;28;20508;-72
2021/10/14 03:50:09;;;;;;;17.88;11.63;;;10.60;85.80;;;;;;4985794;28;20492;-72
2021/10/14 03:52:35;;;;;;;17.45;11.80;;;10.60;85.80;;;;;;4990582;28;20041;-72
2021/10/14 03:55:00;;;;;;;19.75;11.80;;;10.70;85.80;;;;;;4986288;28;20030;-75
2021/10/14 03:57:26;;;;;;;19.60;12.50;;;10.80;85.80;;;;;;4986166;28;20118;-73
2021/10/14 03:59:52;;;;;;;21.42;12.77;;;10.80;85.80;;;;;;4992644;28;20038;-74
2021/10/14 04:02:17;;;;;;;21.08;12.95;;;10.80;85.80;;;;;;4989417;28;20039;-73
2021/10/14 04:04:43;;;;;;;19.60;12.65;;;10.80;86.00;;;;;;4988779;28;20097;-73
2021/10/14 04:07:09;;;;;;;20.33;12.73;;;10.80;86.10;;;;;;4983868;28;20034;-73
2021/10/14 04:09:34;;;;;;;21.67;13.80;;;10.80;86.10;;;;;;4983798;28;20033;-72
2021/10/14 04:12:00;;;;;;;20.98;13.75;;;10.80;86.10;;;;;;4990858;28;20034;-72
2021/10/14 04:14:26;;;;;;;20.45;13.35;;;10.80;86.10;;;;;;4988386;28;20041;-72
2021/10/14 04:16:51;;;;;;;17.55;12.85;;;10.90;86.20;;;;;;4983498;28;20034;-74
2021/10/14 04:19:17;;;;;;;21.00;14.45;;;10.80;86.10;;;;;;4987804;28;20113;-73
2021/10/14 04:21:43;;;;;;;19.00;13.38;;;10.80;86.20;;;;;;4978746;28;20170;-73
2021/10/14 04:24:08;;;;;;;20.75;13.93;;;10.80;86.20;;;;;;4986459;28;20466;-75
2021/10/14 04:26:34;;;;;;;19.92;13.75;;;10.80;86.30;;;;;;4986245;28;20037;-73
2021/10/14 04:29:00;;;;;;;21.63;14.05;;;10.90;86.20;;;;;;4983925;28;20050;-75
2021/10/14 04:31:26;;;;;;;18.00;13.52;;;10.90;86.20;;;;;;4982917;28;20046;-75
2021/10/14 04:33:52;;;;;;;20.95;12.77;;;10.90;86.10;;;;;;4999561;28;20077;-73
2021/10/14 04:36:18;;;;;;;19.10;13.15;;;10.80;86.30;;;;;;4982680;28;20038;-73
2021/10/14 04:38:44;;;;;;;21.38;14.68;;;10.80;86.30;;;;;;4985839;28;20038;-72
2021/10/14 04:41:09;;;;;;;19.33;14.40;;;10.80;86.30;;;;;;4984009;28;20033;-73
2021/10/14 04:43:35;;;;;;;22.63;15.07;;;10.90;86.30;;;;;;4982102;28;20420;-73
2021/10/14 04:46:00;;;;;;;17.92;14.07;;;10.80;86.50;;;;;;4984469;28;20031;-74
2021/10/14 04:48:26;;;;;;;21.52;14.50;;;10.90;86.50;;;;;;4985023;28;20238;-74
2021/10/14 04:50:52;;;;;;;22.02;14.77;;;10.80;86.50;;;;;;4986506;28;20046;-73
2021/10/14 04:53:17;;;;;;;22.08;15.18;;;10.80;86.50;;;;;;4983516;28;20046;-76
2021/10/14 04:55:43;;;;;;;19.23;15.20;;;10.90;86.50;;;;;;4984120;28;20065;-74
2021/10/14 04:58:09;;;;;;;23.50;15.13;;;10.80;86.60;;;;;;4986271;28;20473;-74
2021/10/14 05:00:35;;;;;;;21.00;15.15;;;10.90;86.60;;;;;;4985203;28;20831;-73
2021/10/14 05:03:00;;;;;;;20.27;15.38;;;10.90;86.60;;;;;;4974686;28;20045;-75
2021/10/14 05:05:26;;;;;;;18.52;15.43;;;10.90;86.60;;;;;;4982525;28;20133;-75
2021/10/14 05:07:52;;;;;;;24.30;16.10;;;10.80;86.80;;;;;;4989307;28;20038;-73
2021/10/14 05:10:18;;;;;;;22.65;15.30;;;10.90;86.70;;;;;;4979922;28;20035;-78
2021/10/14 05:12:43;;;;;;;21.83;15.45;;;10.90;86.70;;;;;;4983575;28;20045;-73
2021/10/14 05:15:10;;;;;;;19.75;15.20;;;10.90;86.80;;;;;;4987103;28;20031;-73
2021/10/14 05:17:36;;;;;;;22.33;16.33;;;10.90;86.80;;;;;;4986058;28;20049;-73
2021/10/14 05:20:04;;;;;;;21.13;16.17;;;10.90;86.80;;;;;;4986482;28;20065;-78
2021/10/14 05:22:30;;;;;;;25.35;17.33;;;10.90;86.90;;;;;;4987506;28;20386;-72
2021/10/14 05:24:55;;;;;;;20.40;15.48;;;10.90;87.00;;;;;;4988793;28;20030;-75
2021/10/14 05:27:21;;;;;;;20.45;16.40;;;10.90;87.00;;;;;;4983901;28;20051;-74
2021/10/14 05:29:47;;;;;;;20.58;16.20;;;10.90;87.10;;;;;;4983463;28;20121;-77
2021/10/14 05:32:13;;;;;;;20.77;15.95;;;10.90;87.10;;;;;;4981826;28;20031;-74
2021/10/14 05:34:38;;;;;;;21.98;17.02;;;11.00;87.00;;;;;;4982371;28;20034;-73
2021/10/14 05:37:04;;;;;;;25.10;16.50;;;11.00;87.10;;;;;;5004358;28;20050;-72
2021/10/14 05:39:30;;;;;;;23.85;17.35;;;11.00;87.10;;;;;;4987771;28;20092;-71
2021/10/14 05:41:55;;;;;;;26.67;17.67;;;10.90;87.20;;;;;;4992428;28;20041;-74
2021/10/14 05:44:21;;;;;;;21.00;16.45;;;10.90;87.30;;;;;;4985210;28;20038;-72
2021/10/14 05:46:47;;;;;;;21.92;17.33;;;10.90;87.40;;;;;;4981240;28;20038;-72
2021/10/14 05:49:12;;;;;;;23.15;16.60;;;10.90;87.60;;;;;;4981753;28;20446;-75
2021/10/14 05:51:38;;;;;;;21.00;16.50;;;11.00;87.60;;;;;;4986209;28;20129;-72
2021/10/14 05:54:04;;;;;;;21.85;17.38;;;11.00;87.60;;;;;;4980640;28;20138;-72
2021/10/14 05:56:30;;;;;;;26.60;18.13;;;11.00;87.60;;;;;;4984881;28;20472;-72
2021/10/14 05:58:56;;;;;;;25.63;18.55;;;11.00;87.60;;;;;;5003653;28;20083;-71
2021/10/14 06:01:21;;;;;;;22.90;16.25;;;11.10;87.50;;;;;;5013296;28;20445;-72
2021/10/14 06:03:47;;;;;;;22.77;16.77;;;11.10;87.50;;;;;;5015252;28;20030;-72
2021/10/14 06:06:13;;;;;;;21.17;16.60;;;11.10;87.40;;;;;;5016378;28;20029;-71
2021/10/14 06:08:39;;;;;;;29.52;16.52;;;11.00;87.50;;;;;;5017209;28;20048;-75
2021/10/14 06:11:04;;;;;;;20.40;15.05;;;11.00;87.50;;;;;;5016970;28;20057;-72
2021/10/14 06:13:31;;;;;;;26.20;16.55;;;11.00;87.50;;;;;;5019227;28;20045;-73
2021/10/14 06:15:56;;;;;;;21.20;15.60;;;11.00;87.50;;;;;;5017751;28;20040;-72
2021/10/14 06:18:22;;;;;;;25.63;15.50;;;11.00;87.50;;;;;;5019451;28;20125;-72
2021/10/14 06:20:48;;;;;;;19.45;14.60;;;11.10;87.40;;;;;;5021068;28;20033;-74
2021/10/14 06:23:14;;;;;;;24.65;14.15;;;11.10;87.20;;;;;;5017630;28;20046;-73
2021/10/14 06:25:39;;;;;;;21.42;15.73;;;11.10;87.30;;;;;;5018035;28;20045;-72
2021/10/14 06:28:05;;;;;;;22.17;14.98;;;11.10;87.30;;;;;;5015821;28;20115;-72
2021/10/14 06:30:32;;;;;;;23.85;15.20;;;11.10;87.40;;;;;;5019566;28;20061;-72
2021/10/14 06:32:58;;;;;;;21.98;14.73;;;11.10;87.40;;;;;;5013073;28;20042;-72
2021/10/14 06:35:25;;;;;;;21.38;15.65;;;11.10;87.30;;;;;;5030040;28;20066;-72
2021/10/14 06:37:51;;;;;;;19.20;13.93;;;11.10;87.30;;;;;;5012662;28;20054;-71
2021/10/14 06:40:17;;;;;;;23.25;14.95;;;11.10;87.40;;;;;;5011517;28;20038;-73
2021/10/14 06:42:43;;;;;;;21.05;14.40;;;11.10;87.30;;;;;;5018022;28;20030;-71
2021/10/14 06:45:09;;;;;;;22.10;13.57;;;11.10;87.30;;;;;;5017104;28;20094;-73
2021/10/14 06:47:36;;;;;;;23.88;14.35;;;11.10;87.20;;;;;;5016715;28;20552;-72
2021/10/14 06:50:04;;;;;;;21.40;13.75;;;11.10;87.10;;;;;;5012621;28;20034;-73
2021/10/14 06:52:30;;;;;;;20.80;14.10;;;11.20;87.10;;;;;;5015490;28;20489;-73
2021/10/14 06:54:56;;;;;;;21.60;13.63;;;11.20;87.20;;;;;;5018096;28;20037;-73
2021/10/14 06:57:21;;;;;;;21.27;14.18;;;11.20;87.10;;;;;;5015328;28;20040;-74
2021/10/14 06:59:47;;;;;;;20.13;13.85;;;11.30;87.10;;;;;;5013314;28;20033;-73
2021/10/14 07:02:13;;;;;;;22.77;15.02;;;11.30;87.10;;;;;;5017473;28;20042;-74
2021/10/14 07:04:38;;;;;;;21.23;14.38;;;11.30;87.00;;;;;;5010070;28;20048;-71
2021/10/14 07:07:04;;;;;;;17.55;13.43;;;11.30;87.00;;;;;;5018512;28;20107;-71
2021/10/14 07:09:29;;;;;;;19.58;14.45;;;11.40;86.90;;;;;;5017503;28;20030;-71
2021/10/14 07:11:59;;;;;;;19.33;13.88;;;11.40;86.90;;;;;;5020127;28;20042;-72
2021/10/14 07:14:24;;;;;;;23.88;14.70;;;11.50;86.90;;;;;;5018791;28;20045;-71
2021/10/14 07:16:50;;;;;;;23.17;14.85;;;11.50;87.00;;;;;;5020395;28;20091;-76
2021/10/14 07:19:16;;;;;;;16.92;13.30;;;11.50;86.90;;;;;;5021502;28;20041;-77
2021/10/14 07:21:42;;;;;;;20.27;14.70;;;11.60;86.80;;;;;;5012053;28;20598;-75
2021/10/14 07:24:08;;;;;;;20.85;14.27;;;11.60;86.70;;;;;;5017687;28;20064;-72
2021/10/14 07:26:34;;;;;;;20.40;13.57;;;11.60;86.80;;;;;;5021834;28;20097;-71
2021/10/14 07:29:02;;;;;;;20.88;16.00;;;11.70;86.80;;;;;;5019829;28;20046;-72
2021/10/14 07:31:28;;;;;;;23.92;15.30;;;11.70;86.60;;;;;;5019545;28;20030;-71
2021/10/14 07:33:54;;;;;;;22.35;14.68;;;11.80;86.60;;;;;;5018260;28;20104;-71
2021/10/14 07:36:20;;;;;;;19.17;14.68;;;11.80;86.50;;;;;;5019230;28;20030;-71
2021/10/14 07:38:45;;;;;;;22.67;14.77;;;11.80;86.60;;;;;;5018848;28;20478;-72
2021/10/14 07:41:11;;;;;;;29.92;16.00;;;11.90;86.60;;;;;;5018541;28;20033;-74
2021/10/14 07:43:37;;;;;;;21.88;15.95;;;11.90;86.40;;;;;;5019995;28;20022;-71
2021/10/14 07:46:07;;;;;;;25.45;16.17;;;12.00;86.50;;;;;;5019116;28;20374;-71
2021/10/14 07:48:33;;;;;;;21.42;15.23;;;12.00;86.20;;;;;;5016570;28;20125;-71
2021/10/14 07:50:59;;;;;;;25.15;15.70;;;12.10;86.30;;;;;;5022038;28;20038;-73
2021/10/14 07:53:24;;;;;;;17.42;14.43;;;12.10;86.20;;;;;;5017828;28;20072;-74
2021/10/14 07:55:50;;;;;;;23.10;16.35;;;12.20;86.20;;;;;;5020772;28;20037;-71
2021/10/14 07:58:16;;;;;;;19.27;14.73;;;12.30;85.90;;;;;;5023784;28;20058;-71
2021/10/14 08:00:42;;;;;;;22.98;16.02;;;12.40;85.90;;;;;;5017282;28;20567;-71
2021/10/14 08:03:08;;;;;;;23.90;16.00;;;12.40;85.70;;;;;;5021407;28;20097;-72
2021/10/14 08:05:33;;;;;;;21.52;14.95;;;12.50;85.60;;;;;;5018195;28;20046;-71
2021/10/14 08:08:00;;;;;;;19.25;15.90;;;12.60;85.40;;;;;;5017665;28;20143;-75
2021/10/14 08:10:27;;;;;;;18.92;13.73;;;12.60;84.90;;;;;;5027033;28;20069;-75
2021/10/14 08:12:52;;;;;;;21.70;14.70;;;12.60;84.90;;;;;;5022434;28;20069;-73
2021/10/14 08:15:18;;;;;;;19.02;14.38;;;12.80;84.70;;;;;;5017804;28;20052;-72
2021/10/14 08:17:44;;;;;;;24.63;15.88;;;12.80;84.50;;;;;;5021308;28;20087;-73
2021/10/14 08:20:10;;;;;;;22.42;15.98;;;12.90;84.30;;;;;;5019834;28;20053;-73
2021/10/14 08:22:36;;;;;;;26.42;15.65;;;13.00;84.30;;;;;;5016810;28;20041;-72
2021/10/14 08:25:07;;;;;;;21.33;14.80;;;13.10;84.10;;;;;;5014251;28;20029;-72
2021/10/14 08:27:33;;;;;;;22.33;16.25;;;13.10;84.20;;;;;;5020213;28;20066;-72
2021/10/14 08:29:59;;;;;;;21.05;16.58;;;13.30;83.90;;;;;;5022200;28;20037;-75
2021/10/14 08:32:24;;;;;;;23.33;16.80;;;13.30;83.90;;;;;;5017270;28;21559;-72
2021/10/14 08:34:50;;;;;;;24.42;17.20;;;13.40;84.00;;;;;;5022853;28;20485;-72
2021/10/14 08:37:22;;;;;;;25.20;18.65;;;13.50;83.50;;;;;;5016123;28;20043;-74
2021/10/14 08:39:52;;;;;;;24.35;17.38;;;13.50;83.70;;;;;;5025299;28;20105;-75
2021/10/14 08:42:18;;;;;;;24.17;18.48;;;13.50;83.60;;;;;;5018904;28;20565;-72
2021/10/14 08:44:44;;;;;;;26.92;19.55;;;13.60;83.60;;;;;;5024655;28;20038;-71
2021/10/14 08:47:14;;;;;;;26.30;17.65;;;13.60;83.40;;;;;;5021900;28;20046;-72
2021/10/14 08:49:44;;;;;;;23.08;16.33;;;13.60;82.90;;;;;;5018613;28;20051;-72
2021/10/14 08:52:10;;;;;;;25.88;17.38;;;13.70;82.90;;;;;;5017703;28;20030;-74
2021/10/14 08:54:36;;;;;;;23.50;16.80;;;13.70;82.90;;;;;;5018862;28;20029;-75
2021/10/14 08:57:02;;;;;;;23.00;16.05;;;13.80;82.90;;;;;;5020939;28;20037;-75
2021/10/14 08:59:27;;;;;;;25.05;16.80;;;13.70;82.90;;;;;;5029617;28;20034;-75
2021/10/14 09:02:09;;;;;;;22.65;15.60;;;13.80;82.80;;;;;;5021405;28;20049;-74
2021/10/14 09:04:57;;;;;;;20.27;15.40;;;13.90;82.50;;;;;;5023498;28;20038;-73
2021/10/14 09:07:26;;;;;;;21.40;15.35;;;14.10;82.00;;;;;;5024188;28;20121;-73
2021/10/14 09:09:52;;;;;;;21.08;15.63;;;14.10;82.00;;;;;;5026949;28;20025;-71
2021/10/14 09:12:21;;;;;;;20.02;15.02;;;14.10;81.80;;;;;;5018838;28;20056;-72
2021/10/14 09:15:04;;;;;;;19.20;16.02;;;14.10;81.60;;;;;;5024221;28;20034;-73
2021/10/14 09:17:43;;;;;;;20.55;15.35;;;14.10;81.70;;;;;;5017142;28;20041;-74
2021/10/14 09:20:37;;;;;;;21.50;15.75;;;14.20;81.20;;;;;;5054187;28;20034;-75
2021/10/14 09:23:11;;;;;;;20.65;15.13;;;14.30;80.90;;;;;;5024357;28;20034;-75
2021/10/14 09:25:45;;;;;;;18.30;14.43;;;14.30;81.40;;;;;;5025984;28;20037;-71
2021/10/14 09:28:19;;;;;;;21.83;15.30;;;14.30;80.90;;;;;;5023297;28;20089;-71
2021/10/14 09:30:53;;;;;;;;;;;14.30;81.20;;;;;;5024724;28;20060;-72
2021/10/14 09:33:46;;;;;;;23.92;14.93;;;14.30;81.10;;;;;;5022312;28;19909;-70
2021/10/14 09:36:22;;;;;;;20.15;15.55;;;14.40;80.60;;;;;;5022380;28;20042;-71
2021/10/14 09:38:49;;;;;;;21.67;14.95;;;14.30;81.00;;;;;;5023993;28;20025;-77
2021/10/14 09:41:19;;;;;;;20.35;15.32;;;14.40;81.00;;;;;;5039685;28;20054;-71
2021/10/14 09:43:48;;;;;;;18.42;14.88;;;14.40;81.30;;;;;;5026425;28;20030;-75
2021/10/14 09:46:42;;;;;;;25.60;16.08;;;14.50;81.20;;;;;;5025828;28;20073;-76
2021/10/14 09:49:12;;;;;;;21.02;15.20;;;14.60;81.00;;;;;;5010775;28;20061;-75
2021/10/14 09:51:39;;;;;;;23.27;16.85;;;14.60;80.90;;;;;;5006295;28;20093;-71
2021/10/14 09:54:05;;;;;;;20.67;15.20;;;14.70;80.70;;;;;;5003754;28;20051;-72
2021/10/14 09:56:31;;;;;;;21.50;15.95;;;14.70;80.80;;;;;;5004406;28;20037;-77
2021/10/14 09:58:59;;;;;;;19.50;15.68;;;14.80;80.30;;;;;;5011953;28;20046;-76
2021/10/14 10:01:25;;;;;;;21.73;15.35;;;14.80;80.50;;;;;;5002779;28;20097;-72
2021/10/14 10:03:52;;;;;;;21.77;14.48;;;14.80;80.60;;;;;;5005417;28;20034;-72
2021/10/14 10:06:24;;;;;;;20.58;15.13;;;14.90;80.50;;;;;;5002400;28;20041;-76
2021/10/14 10:08:53;;;;;;;19.20;14.88;;;14.90;80.40;;;;;;5004128;28;20473;-74
2021/10/14 10:11:21;;;;;;;19.70;15.75;;;15.00;80.60;;;;;;5004753;28;20434;-76
2021/10/14 10:13:52;;;;;;;21.58;15.00;;;15.00;80.30;;;;;;5011825;28;20077;-73
2021/10/14 10:16:26;;;;;;;18.30;14.75;;;15.00;80.30;;;;;;5005680;28;20710;-76
2021/10/14 10:18:54;;;;;;;21.75;15.23;;;15.10;80.60;;;;;;5007687;28;20045;-76
2021/10/14 10:21:31;;;;;;;17.63;13.27;;;15.10;80.40;;;;;;5004679;28;20102;-75
2021/10/14 10:24:04;;;;;;;19.13;14.10;;;15.10;80.30;;;;;;5000814;28;20061;-72
2021/10/14 10:26:33;;;;;;;20.33;14.60;;;15.20;80.40;;;;;;5008377;28;20058;-76
2021/10/14 10:29:15;;;;;;;17.65;13.18;;;15.20;80.00;;;;;;5006269;28;20042;-75
2021/10/14 10:31:51;;;;;;;20.05;14.23;;;15.30;80.10;;;;;;5024281;28;20045;-72
2021/10/14 10:34:44;;;;;;;19.75;14.30;;;15.20;79.90;;;;;;5023169;28;20144;-74
2021/10/14 10:37:16;;;;;;;18.10;13.65;;;15.30;80.00;;;;;;5037399;28;20048;-72
2021/10/14 10:39:57;;;;;;;17.23;12.63;;;15.30;80.20;;;;;;5025270;28;20036;-73
2021/10/14 10:43:09;;;;;;;18.55;13.35;;;15.20;79.90;;;;;;5023065;28;20030;-75
2021/10/14 10:45:41;;;;;;;17.35;12.55;;;15.10;79.50;;;;;;5017867;28;20040;-71
2021/10/14 10:48:08;;;;;;;19.88;12.57;;;15.10;79.70;;;;;;5027251;28;20045;-73
2021/10/14 10:50:33;;;;;;;16.48;12.38;;;15.10;79.50;;;;;;5026837;28;20034;-75
2021/10/14 10:53:08;;;;;;;18.27;12.27;;;15.10;79.80;;;;;;5026004;28;20025;-73
2021/10/14 10:55:39;;;;;;;16.77;11.82;;;15.00;80.50;;;;;;5029100;28;20030;-74
2021/10/14 10:58:07;;;;;;;16.00;11.32;;;15.00;80.40;;;;;;5028082;28;20056;-75
2021/10/14 11:00:34;;;;;;;15.70;11.63;;;15.00;80.30;;;;;;5028111;28;20025;-77
2021/10/14 11:03:06;;;;;;;17.50;12.10;;;15.00;79.70;;;;;;5032469;28;20037;-74
2021/10/14 11:06:00;;;;;;;16.92;12.27;;;15.00;80.20;;;;;;5027403;28;20045;-73
2021/10/14 11:08:27;;;;;;;16.65;11.60;;;15.10;79.80;;;;;;5041787;28;20052;-72
2021/10/14 11:11:03;;;;;;;17.05;11.77;;;15.10;79.60;;;;;;5025398;28;20069;-74
2021/10/14 11:13:34;;;;;;;14.75;9.63;;;15.20;79.30;;;;;;5047039;28;20041;-72
2021/10/14 11:16:00;;;;;;;13.70;9.73;;;15.30;78.80;;;;;;5029639;28;20273;-73
2021/10/14 11:18:27;;;;;;;18.88;10.95;;;15.30;78.60;;;;;;5024361;28;20034;-74
2021/10/14 11:20:59;;;;;;;14.68;9.80;;;15.30;78.20;;;;;;5020115;28;20080;-74
2021/10/14 11:23:45;;;;;;;16.30;9.90;;;15.40;78.40;;;;;;5019283;28;20037;-76
2021/10/14 11:26:35;;;;;;;16.75;10.25;;;15.40;77.90;;;;;;5020231;28;20041;-76
2021/10/14 11:29:05;;;;;;;18.58;10.65;;;15.50;78.10;;;;;;5022858;28;20631;-76
2021/10/14 11:31:38;;;;;;;14.82;9.80;;;15.50;77.70;;;;;;5020926;28;20037;-72
2021/10/14 11:34:16;;;;;;;15.77;10.13;;;15.50;77.70;;;;;;5020420;28;20054;-73
2021/10/14 11:37:00;;;;;;;20.23;11.90;;;15.40;77.50;;;;;;5021911;28;20049;-73
2021/10/14 11:39:35;;;;;;;20.75;11.65;;;15.30;77.90;;;;;;5011887;28;20051;-78
2021/10/14 11:42:01;;;;;;;;;;;15.30;78.30;;;;;;5002829;28;20043;-77
2021/10/14 11:44:31;;;;;;;16.50;11.90;;;15.20;78.40;;;;;;5002458;28;21335;-70
2021/10/14 11:46:57;;;;;;;17.33;11.88;;;15.20;79.20;;;;;;4999677;28;20041;-74
2021/10/14 11:49:24;;;;;;;17.83;11.02;;;15.20;78.80;;;;;;4999522;28;20128;-71
2021/10/14 11:51:51;;;;;;;18.92;11.70;;;15.30;78.90;;;;;;5003334;28;20035;-70
2021/10/14 11:54:17;;;;;;;15.95;10.77;;;15.40;78.80;;;;;;5001301;28;20042;-70
2021/10/14 11:56:48;;;;;;;17.13;11.60;;;15.40;78.70;;;;;;5035622;28;20037;-71
2021/10/14 11:59:18;;;;;;;15.65;10.93;;;15.40;78.20;;;;;;5033679;28;20038;-73
2021/10/14 12:01:49;;;;;;;20.88;12.05;;;15.40;78.40;;;;;;5031509;28;20030;-72
2021/10/14 12:04:17;;;;;;;16.98;10.85;;;15.40;78.20;;;;;;5027703;28;20042;-73
2021/10/14 12:06:45;;;;;;;18.05;11.50;;;15.40;78.10;;;;;;5029243;28;20064;-75
2021/10/14 12:09:14;;;;;;;16.38;11.32;;;15.30;78.70;;;;;;5022773;28;20042;-74
2021/10/14 12:11:40;;;;;;;17.77;11.93;;;15.10;79.20;;;;;;5027415;28;20525;-74
2021/10/14 12:14:06;;;;;;;16.67;11.60;;;15.10;79.20;;;;;;5028021;28;20042;-75
2021/10/14 12:16:32;;;;;;;16.02;11.63;;;15.10;79.20;;;;;;5028649;28;20030;-75
2021/10/14 12:19:16;;;;;;;18.13;12.30;;;15.10;79.50;;;;;;5029407;28;20029;-76
2021/10/14 12:21:45;;;;;;;15.63;10.88;;;15.20;79.60;;;;;;5008129;28;20038;-78
2021/10/14 12:24:29;;;;;;;18.55;12.13;;;15.10;79.60;;;;;;5029170;28;20436;-74
2021/10/14 12:26:56;;;;;;;14.88;11.65;;;15.20;79.50;;;;;;5007568;28;20331;-73
2021/10/14 12:29:30;;;;;;;16.92;11.20;;;15.10;79.40;;;;;;5009564;28;20047;-76
2021/10/14 12:32:28;;;;;;;16.48;10.13;;;15.10;79.60;;;;;;5003959;28;20038;-73